Time;durP1;ratioP1;P1;durP2;ratioP2;P2;SDS_P1;SDS_P2;PMS_P1;PMS_P2;Temp;Humidity;BMP_temperature;BMP_pressure;BME280_temperature;BME280_humidity;BME280_pressure;Samples;Min_cycle;Max_cycle;Signal;HPM_P1;HPM_P2
2022/08/12 00:44:49;;;;;;;3.63;1.45;;;;;;;21.33;40.33;98866.38;5105476;28;20395;-67
2022/08/12 00:47:17;;;;;;;4.55;1.38;;;;;;;21.28;40.33;98861.69;5106458;28;20396;-67
2022/08/12 00:49:44;;;;;;;6.82;1.60;;;;;;;21.22;40.78;98858.09;5098970;28;20047;-67
2022/08/12 00:52:09;;;;;;;2.60;1.40;;;;;;;21.17;40.66;98857.25;5104420;28;20027;-67
2022/08/12 00:54:38;;;;;;;1.90;1.30;;;;;;;21.10;40.86;98863.00;5086100;28;20030;-67
2022/08/12 00:57:15;;;;;;;5.57;1.50;;;;;;;20.94;41.11;98847.56;5088919;28;20027;-66
2022/08/12 00:59:53;;;;;;;4.03;1.45;;;;;;;21.01;41.16;98864.59;5107912;28;20023;-67
2022/08/12 01:02:37;;;;;;;2.88;1.38;;;;;;;20.98;41.43;98859.66;5104724;28;20019;-67
2022/08/12 01:13:30;;;;;;;3.83;1.35;;;;;;;20.81;41.78;98857.13;5102652;28;20554;-66
2022/08/12 01:15:57;;;;;;;4.80;1.90;;;;;;;20.83;41.76;98859.59;5103081;28;20028;-67
2022/08/12 01:18:28;;;;;;;2.03;1.63;;;;;;;20.81;42.09;98870.88;5098981;28;20058;-67
2022/08/12 01:21:10;;;;;;;2.17;1.48;;;;;;;20.76;42.24;98863.44;5094635;28;20020;-67
2022/08/12 01:24:08;;;;;;;3.58;1.52;;;;;;;20.70;42.45;98867.25;5103200;28;20050;-67
2022/08/12 01:26:38;;;;;;;3.10;1.58;;;;;;;20.68;42.39;98868.63;5102269;28;20057;-67
2022/08/12 01:29:06;;;;;;;5.53;1.63;;;;;;;20.67;42.53;98870.56;5098233;28;20123;-67
2022/08/12 01:31:35;;;;;;;3.58;1.80;;;;;;;20.64;42.71;98865.56;5102920;28;20074;-67
2022/08/12 01:34:02;;;;;;;;;;;;;;;20.62;42.71;98867.78;5097915;28;20028;-66
2022/08/12 01:36:35;;;;;;;2.25;1.60;;;;;;;20.61;42.75;98870.78;5097580;28;19919;-67
2022/08/12 01:39:01;;;;;;;3.75;1.70;;;;;;;20.61;42.94;98866.09;5103419;28;20031;-67
2022/08/12 01:41:31;;;;;;;2.67;1.48;;;;;;;20.58;42.91;98861.97;5100823;28;20016;-67
2022/08/12 01:43:59;;;;;;;3.95;1.42;;;;;;;20.58;43.18;98863.91;5098085;28;20027;-67
2022/08/12 01:46:35;;;;;;;5.85;1.40;;;;;;;20.52;43.25;98853.94;5084620;28;20027;-67
2022/08/12 01:49:17;;;;;;;5.10;1.60;;;;;;;20.46;43.37;98852.25;5101987;28;20023;-67
2022/08/12 01:51:48;;;;;;;3.65;1.80;;;;;;;20.40;43.55;98847.81;5100185;28;20027;-67
2022/08/12 01:54:17;;;;;;;6.38;1.73;;;;;;;20.31;43.88;98845.59;5100141;28;20080;-67
2022/08/12 01:57:04;;;;;;;2.65;1.73;;;;;;;20.25;43.77;98845.81;5095745;28;20036;-67
2022/08/12 01:59:45;;;;;;;6.60;1.90;;;;;;;20.28;43.79;98848.06;5102694;28;20489;-67
2022/08/12 02:02:15;;;;;;;4.75;1.58;;;;;;;20.26;43.83;98842.81;5099267;28;20573;-67
2022/08/12 02:11:23;;;;;;;2.90;1.63;;;;;;;20.12;44.34;98858.09;5105619;22;20121;-66
2022/08/12 02:14:23;;;;;;;3.28;1.55;;;;;;;20.11;44.17;98846.28;5082984;28;20117;-66
2022/08/12 02:16:48;;;;;;;2.63;1.60;;;;;;;20.06;44.42;98857.22;5084873;28;20123;-65
2022/08/12 02:19:53;;;;;;;2.63;1.40;;;;;;;20.06;44.22;98864.66;5095415;28;20114;-66
2022/08/12 02:22:30;;;;;;;1.90;1.70;;;;;;;20.02;44.55;98866.28;5106501;28;20064;-66
2022/08/12 02:25:08;;;;;;;2.15;1.50;;;;;;;19.96;44.66;98865.38;5104405;28;20103;-65
2022/08/12 02:27:38;;;;;;;3.72;1.75;;;;;;;19.86;44.91;98863.41;5107805;28;20488;-65
2022/08/12 02:30:07;;;;;;;3.22;1.83;;;;;;;19.74;45.02;98849.03;5103801;28;20034;-66
2022/08/12 02:32:37;;;;;;;3.28;1.80;;;;;;;19.73;45.33;98852.03;5105799;28;20484;-66
2022/08/12 02:35:04;;;;;;;2.58;1.45;;;;;;;19.75;45.18;98853.41;5106601;28;20028;-66
2022/08/12 02:37:30;;;;;;;3.25;1.58;;;;;;;19.67;45.68;98845.66;5108734;28;20043;-66
2022/08/12 02:39:58;;;;;;;2.05;1.30;;;;;;;19.62;45.56;98849.19;5110664;28;20059;-66
2022/08/12 02:42:27;;;;;;;7.40;1.60;;;;;;;19.62;45.73;98849.19;5109420;28;20028;-65
2022/08/12 02:44:54;;;;;;;1.58;1.38;;;;;;;19.60;45.59;98851.38;5106056;28;20287;-65
2022/08/12 02:47:21;;;;;;;3.58;1.80;;;;;;;19.56;45.89;98841.97;5107311;28;20031;-65
2022/08/12 02:49:54;;;;;;;2.38;1.33;;;;;;;19.51;45.97;98841.94;5106081;28;20592;-65
2022/08/12 02:52:21;;;;;;;2.03;1.65;;;;;;;19.53;45.83;98845.25;5102720;28;20115;-65
2022/08/12 02:54:52;;;;;;;2.35;1.70;;;;;;;19.43;46.14;98845.97;5083041;28;20080;-65
2022/08/12 02:57:21;;;;;;;2.30;1.48;;;;;;;19.36;46.39;98839.03;5105211;28;20092;-66
2022/08/12 02:59:48;;;;;;;4.40;1.50;;;;;;;19.24;46.41;98831.00;5108012;28;20038;-66
2022/08/12 03:02:18;;;;;;;2.60;1.63;;;;;;;19.26;46.48;98839.81;5106635;28;20111;-66
2022/08/12 03:04:53;;;;;;;2.60;1.55;;;;;;;19.22;46.69;98844.13;5083348;28;20123;-66
2022/08/12 03:07:34;;;;;;;2.47;1.60;;;;;;;18.96;47.45;98841.13;5103617;28;20016;-66
2022/08/12 03:10:04;;;;;;;1.55;1.35;;;;;;;18.97;47.72;98836.47;5093037;28;20031;-66
2022/08/12 03:12:35;;;;;;;2.88;1.65;;;;;;;18.92;47.37;98834.50;5104040;28;20023;-66
2022/08/12 03:15:05;;;;;;;2.47;1.52;;;;;;;18.80;47.85;98842.03;5104677;28;20110;-65
2022/08/12 03:17:55;;;;;;;2.90;1.75;;;;;;;18.53;48.72;98839.22;5103437;28;20028;-66
2022/08/12 03:20:22;;;;;;;4.63;1.77;;;;;;;18.21;49.17;98833.56;5108635;28;20026;-66
2022/08/12 03:22:49;;;;;;;6.05;1.80;;;;;;;18.08;49.78;98840.25;5102478;28;20031;-66
2022/08/12 03:25:20;;;;;;;4.20;1.60;;;;;;;17.95;50.42;98841.41;5104463;28;20142;-65
2022/08/12 03:27:50;;;;;;;4.07;1.60;;;;;;;17.82;50.68;98839.84;5101817;28;20019;-65
2022/08/12 03:30:21;;;;;;;4.68;1.70;;;;;;;17.78;51.15;98851.50;5105784;28;20016;-67
2022/08/12 03:32:48;;;;;;;4.82;1.63;;;;;;;17.74;51.43;98846.53;5106259;28;20032;-66
2022/08/12 03:35:25;;;;;;;2.80;1.70;;;;;;;17.80;51.19;98842.00;5106909;28;20492;-67
2022/08/12 03:37:52;;;;;;;3.55;1.70;;;;;;;17.81;51.19;98848.28;5102859;28;20050;-67
2022/08/12 04:02:43;;;;;;;2.63;1.50;;;;;;;17.34;52.33;98841.19;5103508;28;20406;-66
2022/08/12 04:05:12;;;;;;;3.63;1.80;;;;;;;17.50;52.19;98855.94;5105046;28;20032;-65
2022/08/12 04:07:39;;;;;;;2.88;1.60;;;;;;;17.38;52.65;98841.53;5103799;28;20138;-71
2022/08/12 04:10:05;;;;;;;2.55;1.60;;;;;;;17.52;52.33;98859.28;5103248;27;20511;-67
2022/08/12 04:15:18;;;;;;;3.08;2.00;;;;;;;17.33;53.05;98852.38;5104003;28;20127;-69
2022/08/12 04:17:46;;;;;;;6.05;1.65;;;;;;;17.25;53.66;98864.53;5105870;28;20020;-70
2022/08/12 04:20:17;;;;;;;2.38;1.50;;;;;;;17.17;53.48;98857.56;5110788;28;20031;-67
2022/08/12 04:22:43;;;;;;;5.85;1.88;;;;;;;17.13;54.11;98856.38;5112128;28;20023;-68
2022/08/12 04:25:09;;;;;;;3.00;1.80;;;;;;;17.20;54.33;98856.25;5109689;28;20053;-66
2022/08/12 04:27:35;;;;;;;3.47;1.58;;;;;;;17.07;54.48;98855.47;5108118;28;20024;-67
2022/08/12 04:30:00;;;;;;;1.98;1.58;;;;;;;17.15;54.56;98859.72;5110341;28;20026;-64
2022/08/12 04:32:26;;;;;;;3.28;1.60;;;;;;;17.29;54.70;98860.22;5107434;28;20035;-64
2022/08/12 04:34:52;;;;;;;2.05;1.38;;;;;;;17.31;54.06;98864.38;5104271;28;20055;-63
2022/08/12 04:37:18;;;;;;;3.55;1.80;;;;;;;17.28;54.52;98859.41;5109800;28;20019;-63
2022/08/12 04:39:44;;;;;;;2.75;1.60;;;;;;;17.34;54.08;98856.75;5109277;28;20043;-63
2022/08/12 04:42:10;;;;;;;3.67;1.80;;;;;;;17.37;54.23;98861.72;5106104;28;20016;-71
2022/08/12 04:44:35;;;;;;;4.22;1.50;;;;;;;17.51;53.62;98863.91;5107125;28;20031;-71
2022/08/12 04:47:00;;;;;;;16.60;2.00;;;;;;;17.76;52.94;98868.16;5109083;28;20031;-71
2022/08/12 04:49:26;;;;;;;2.60;1.52;;;;;;;17.69;53.23;98862.03;5086282;28;20030;-69
2022/08/12 04:51:52;;;;;;;3.92;1.98;;;;;;;17.54;53.43;98832.50;5102515;28;20031;-72
2022/08/12 04:54:18;;;;;;;1.65;1.50;;;;;;;17.83;53.25;98868.84;5108828;28;20353;-72
2022/08/12 04:56:44;;;;;;;2.50;1.58;;;;;;;17.82;52.67;98863.66;5094163;28;20035;-71
2022/08/12 04:59:10;;;;;;;3.47;1.50;;;;;;;17.79;52.84;98853.16;5082333;28;20031;-72
2022/08/12 05:01:36;;;;;;;4.35;1.55;;;;;;;17.88;53.07;98868.94;5112058;28;20099;-73
2022/08/12 05:04:03;;;;;;;2.25;1.70;;;;;;;17.91;52.88;98867.63;5102105;28;20019;-74
2022/08/12 05:06:28;;;;;;;4.28;2.03;;;;;;;17.95;52.82;98866.03;5111269;28;20489;-67
2022/08/12 05:08:56;;;;;;;3.30;1.75;;;;;;;17.93;52.84;98860.00;5103678;28;20027;-72
2022/08/12 05:11:25;;;;;;;4.32;1.70;;;;;;;18.08;53.01;98871.19;5083466;28;20045;-72
2022/08/12 05:13:59;;;;;;;4.97;1.98;;;;;;;18.23;52.68;98869.72;5107126;28;20057;-68
2022/08/12 05:16:25;;;;;;;2.53;1.75;;;;;;;18.31;51.19;98874.78;5102916;28;20171;-68
2022/08/12 05:18:51;;;;;;;2.90;1.92;;;;;;;18.46;51.87;98864.03;5103641;28;21693;-68
2022/08/12 05:21:16;;;;;;;4.32;1.60;;;;;;;18.53;51.80;98872.09;5103772;28;20520;-68
2022/08/12 05:23:42;;;;;;;3.65;1.80;;;;;;;18.52;51.21;98873.16;5104397;28;20023;-67
2022/08/12 05:26:08;;;;;;;2.72;1.55;;;;;;;18.68;51.10;98866.81;5105508;28;20024;-67
2022/08/12 05:28:34;;;;;;;5.30;1.50;;;;;;;18.81;51.10;98879.31;5102876;28;20568;-67
2022/08/12 05:31:02;;;;;;;2.55;1.60;;;;;;;19.20;49.95;98881.97;5100537;28;20022;-67
2022/08/12 05:33:38;;;;;;;3.30;1.33;;;;;;;19.34;50.32;98885.97;5105716;27;20102;-71
2022/08/12 05:36:11;;;;;;;1.83;1.45;;;;;;;19.59;48.37;98874.38;5090972;28;20067;-73
2022/08/12 05:38:55;;;;;;;2.38;1.60;;;;;;;19.81;48.68;98879.03;5087757;28;20696;-72
2022/08/12 05:41:22;;;;;;;4.90;1.73;;;;;;;20.03;48.42;98884.41;5105331;28;20031;-73
2022/08/12 05:43:48;;;;;;;5.10;1.52;;;;;;;20.13;47.54;98884.47;5106542;28;20035;-71
2022/08/12 05:46:13;;;;;;;4.30;1.70;;;;;;;20.34;46.94;98882.69;5109818;28;20130;-73
2022/08/12 05:48:40;;;;;;;3.55;1.67;;;;;;;20.57;46.39;98889.75;5107108;28;20156;-76
2022/08/12 05:51:06;;;;;;;2.63;1.50;;;;;;;20.71;45.59;98877.16;5114638;27;20027;-79
2022/08/12 05:53:32;;;;;;;2.67;1.80;;;;;;;20.99;45.71;98886.09;5106710;28;20040;-76
2022/08/12 05:55:57;;;;;;;4.45;1.40;;;;;;;21.08;46.81;98892.69;5108195;28;20027;-74
2022/08/12 05:58:22;;;;;;;2.00;1.40;;;;;;;21.18;45.43;98887.22;5089679;28;20019;-75
2022/08/12 06:00:48;;;;;;;2.28;1.52;;;;;;;21.44;44.51;98899.16;5105552;28;20051;-70
2022/08/12 06:03:16;;;;;;;2.05;1.30;;;;;;;21.54;44.13;98890.09;5106682;28;20552;-72
2022/08/12 06:05:44;;;;;;;7.30;1.45;;;;;;;21.71;43.58;98895.34;5109041;28;20033;-69
2022/08/12 06:08:10;;;;;;;2.38;1.58;;;;;;;21.90;43.38;98892.88;5105427;28;20118;-71
2022/08/12 06:10:39;;;;;;;2.00;1.63;;;;;;;22.08;43.91;98894.25;5103851;28;20330;-67
2022/08/12 06:13:06;;;;;;;2.83;1.48;;;;;;;22.53;42.00;98898.91;5103183;28;20456;-69
2022/08/12 06:15:36;;;;;;;2.33;1.42;;;;;;;23.00;41.60;98901.53;5088641;28;20031;-67
2022/08/12 06:18:07;;;;;;;2.50;1.35;;;;;;;23.67;40.41;98899.22;5102279;28;20031;-70
2022/08/12 06:20:33;;;;;;;3.25;1.20;;;;;;;24.71;38.23;98888.66;5087679;28;20412;-68
2022/08/12 06:22:59;;;;;;;4.65;1.45;;;;;;;25.98;35.97;98898.28;5107095;28;20031;-70
2022/08/12 06:25:27;;;;;;;2.05;1.25;;;;;;;27.78;33.02;98898.34;5100354;28;20627;-69
2022/08/12 06:27:54;;;;;;;2.03;1.30;;;;;;;28.64;31.55;98892.56;5106722;28;20096;-69
2022/08/12 06:30:20;;;;;;;3.53;1.20;;;;;;;28.41;31.57;98906.47;5106304;28;20028;-69
2022/08/12 06:32:47;;;;;;;2.88;1.25;;;;;;;29.11;30.59;98895.69;5104188;28;20034;-72
2022/08/12 06:35:15;;;;;;;6.13;1.95;;;;;;;28.83;30.86;98895.91;5104529;28;20168;-71
2022/08/12 06:37:44;;;;;;;2.10;1.35;;;;;;;29.43;30.25;98888.88;5088544;28;20050;-75
2022/08/12 06:40:10;;;;;;;2.38;1.38;;;;;;;30.30;28.73;98880.47;5108126;28;20037;-72
2022/08/12 06:42:53;;;;;;;1.85;1.38;;;;;;;30.48;28.45;98886.84;5107501;28;20019;-73
2022/08/12 06:45:18;;;;;;;6.13;1.60;;;;;;;31.06;28.02;98872.47;5104263;28;20026;-72
2022/08/12 06:47:45;;;;;;;3.88;1.30;;;;;;;31.92;26.80;98887.00;5108916;28;20238;-73
2022/08/12 06:50:17;;;;;;;3.20;1.30;;;;;;;30.31;28.11;98884.09;5110908;28;20091;-75
2022/08/12 06:52:43;;;;;;;2.45;1.38;;;;;;;31.55;26.61;98890.44;5110340;28;20026;-75
2022/08/12 06:55:12;;;;;;;1.77;1.10;;;;;;;32.07;26.22;98886.41;5105997;28;20035;-70
2022/08/12 06:57:53;;;;;;;3.92;1.27;;;;;;;33.74;24.73;98889.53;5101629;28;20026;-74
2022/08/12 07:00:24;;;;;;;3.17;1.20;;;;;;;35.06;23.60;98881.91;5087374;28;20749;-72
2022/08/12 07:02:56;;;;;;;3.90;1.25;;;;;;;34.98;23.05;98884.88;5104026;28;20485;-73
2022/08/12 07:05:25;;;;;;;5.80;1.77;;;;;;;33.27;24.78;98890.06;5103159;28;20481;-74
2022/08/12 07:07:54;;;;;;;3.35;1.50;;;;;;;32.91;25.16;98891.72;5107693;28;20027;-71
2022/08/12 07:10:22;;;;;;;3.38;1.58;;;;;;;33.17;24.97;98894.19;5103576;28;20020;-76
2022/08/12 07:12:53;;;;;;;2.08;1.10;;;;;;;33.65;24.45;98881.28;5090194;28;20488;-74
2022/08/12 07:15:23;;;;;;;6.03;1.52;;;;;;;33.75;24.06;98883.56;5079983;28;20035;-72
2022/08/12 07:17:50;;;;;;;2.72;1.48;;;;;;;33.12;24.53;98878.44;5088505;28;20042;-75
2022/08/12 07:20:16;;;;;;;5.05;1.42;;;;;;;32.90;24.85;98885.28;5084541;28;21151;-69
2022/08/12 07:22:42;;;;;;;2.30;1.35;;;;;;;32.99;24.77;98889.94;5104586;27;20099;-69
2022/08/12 07:27:54;;;;;;;2.28;1.45;;;;;;;32.30;25.46;98884.00;5110515;28;20450;-71
2022/08/12 07:30:21;;;;;;;2.42;1.25;;;;;;;32.63;25.65;98883.97;5110011;28;20031;-71
2022/08/12 07:32:50;;;;;;;4.32;1.30;;;;;;;32.26;25.69;98889.47;5098837;27;20194;-70
2022/08/12 07:35:16;;;;;;;3.25;1.35;;;;;;;32.80;25.37;98894.13;5096612;27;20042;-76
2022/08/12 07:37:43;;;;;;;5.22;1.60;;;;;;;31.81;25.98;98895.81;5109644;28;20057;-77
2022/08/12 07:40:10;;;;;;;1.60;1.17;;;;;;;33.51;24.92;98883.59;5095704;28;20024;-76
2022/08/12 07:42:40;;;;;;;3.45;1.40;;;;;;;33.80;23.88;98886.13;5096172;28;20416;-77
2022/08/12 07:45:06;;;;;;;2.58;1.20;;;;;;;33.12;24.78;98886.03;5114935;28;20030;-77
2022/08/12 07:47:33;;;;;;;1.65;1.10;;;;;;;33.45;24.68;98885.03;5109992;28;20019;-77
2022/08/12 07:50:00;;;;;;;4.68;1.60;;;;;;;33.47;24.45;98882.69;5109968;28;20060;-75
2022/08/12 07:52:28;;;;;;;1.38;1.17;;;;;;;34.30;23.79;98883.94;5111865;28;20106;-76
2022/08/12 07:54:53;;;;;;;2.33;1.20;;;;;;;35.66;22.51;98872.41;5090405;28;20019;-77
2022/08/12 07:57:19;;;;;;;1.92;1.10;;;;;;;35.97;22.15;98892.00;5107039;28;20036;-76
2022/08/12 07:59:45;;;;;;;2.75;1.33;;;;;;;36.10;22.12;98891.88;5092571;28;20035;-74
2022/08/12 08:02:11;;;;;;;3.50;1.58;;;;;;;36.99;21.22;98892.69;5105473;28;20012;-71
2022/08/12 08:07:20;;;;;;;2.08;1.17;;;;;;;37.41;21.18;98886.09;5109511;28;20515;-73
2022/08/12 08:09:46;;;;;;;2.85;1.45;;;;;;;37.69;20.62;98894.97;5106035;28;20098;-72
2022/08/12 08:14:55;;;;;;;7.00;1.30;;;;;;;38.41;20.12;98889.38;5103638;27;20100;-74
2022/08/12 08:17:21;;;;;;;2.63;1.10;;;;;;;38.08;20.26;98883.41;5087283;28;20548;-71
2022/08/12 08:19:51;;;;;;;3.03;1.10;;;;;;;39.10;18.97;98878.34;5106571;28;20119;-69
2022/08/12 08:22:21;;;;;;;2.05;1.33;;;;;;;37.87;20.13;98877.47;5109316;28;20046;-70
2022/08/12 08:24:55;;;;;;;4.70;1.77;;;;;;;37.46;20.04;98880.13;5106096;28;20118;-69
2022/08/12 08:27:21;;;;;;;3.83;1.20;;;;;;;37.75;19.65;98866.41;5112453;28;20038;-70
2022/08/12 08:29:46;;;;;;;2.85;0.95;;;;;;;37.43;20.09;98872.41;5108036;28;20085;-70
2022/08/12 08:32:12;;;;;;;2.88;1.17;;;;;;;37.40;20.58;98870.38;5108555;28;20393;-74
2022/08/12 08:34:37;;;;;;;6.38;1.17;;;;;;;37.97;19.26;98870.34;5105976;28;20541;-71
2022/08/12 08:37:02;;;;;;;1.23;1.08;;;;;;;37.61;20.07;98870.69;5085586;28;20026;-73
2022/08/12 08:39:30;;;;;;;3.55;1.52;;;;;;;36.75;20.44;98880.63;5109076;28;20019;-74
2022/08/12 08:44:40;;;;;;;1.63;1.00;;;;;;;38.75;19.25;98861.84;5109149;28;20061;-71
2022/08/12 08:47:08;;;;;;;3.85;1.30;;;;;;;39.24;18.57;98869.13;5114022;28;20020;-74
2022/08/12 08:49:37;;;;;;;2.10;1.20;;;;;;;37.19;19.57;98857.56;5100450;28;20026;-76
2022/08/12 08:52:04;;;;;;;2.42;0.98;;;;;;;38.52;19.24;98868.53;5107891;28;20020;-75
2022/08/12 08:54:32;;;;;;;1.83;1.10;;;;;;;37.12;19.95;98871.56;5103842;28;20024;-71
2022/08/12 08:57:00;;;;;;;3.42;0.95;;;;;;;36.87;19.80;98867.53;5086011;28;20015;-72
2022/08/12 08:59:26;;;;;;;1.65;1.30;;;;;;;37.68;19.26;98861.50;5110797;28;20389;-80
2022/08/12 09:01:51;;;;;;;2.05;1.13;;;;;;;38.47;19.89;98874.56;5088656;28;20032;-74
2022/08/12 09:04:19;;;;;;;2.00;1.10;;;;;;;39.53;18.27;98866.50;5105609;28;20833;-73
2022/08/12 09:06:46;;;;;;;1.83;1.05;;;;;;;38.93;18.89;98868.50;5107728;28;20031;-71
2022/08/12 09:09:13;;;;;;;2.67;0.98;;;;;;;40.28;18.05;98859.13;5106354;27;20016;-69
2022/08/12 09:14:22;;;;;;;1.60;1.10;;;;;;;38.64;19.03;98856.13;5106999;28;20034;-71
2022/08/12 09:16:49;;;;;;;2.72;1.05;;;;;;;39.83;17.85;98861.41;5103242;28;20023;-71
2022/08/12 09:19:16;;;;;;;3.70;0.90;;;;;;;39.15;17.70;98857.34;5104121;28;20408;-71
2022/08/12 09:21:42;;;;;;;2.85;0.88;;;;;;;39.05;17.87;98858.09;5090088;28;20019;-72
2022/08/12 09:24:08;;;;;;;4.50;1.13;;;;;;;37.77;18.56;98853.53;5093148;28;20490;-71
2022/08/12 09:26:35;;;;;;;1.70;0.95;;;;;;;37.65;19.31;98865.91;5105400;28;20023;-69
2022/08/12 09:29:00;;;;;;;1.70;0.80;;;;;;;37.74;18.93;98859.16;5107870;28;20048;-71
2022/08/12 09:31:26;;;;;;;2.78;1.00;;;;;;;38.28;18.42;98854.94;5091063;28;21611;-69
2022/08/12 09:33:53;;;;;;;1.30;0.95;;;;;;;37.83;18.65;98851.97;5097463;28;20677;-71
2022/08/12 09:36:20;;;;;;;2.00;0.77;;;;;;;37.54;18.62;98850.81;5109081;28;20077;-70
2022/08/12 09:38:45;;;;;;;1.15;1.05;;;;;;;38.20;18.78;98853.22;5106719;28;20108;-67
2022/08/12 09:41:14;;;;;;;1.02;0.80;;;;;;;38.46;18.39;98849.47;5110421;28;20472;-67
2022/08/12 09:46:27;;;;;;;3.95;0.90;;;;;;;37.78;19.00;98843.84;5108499;28;20047;-68
2022/08/12 09:48:52;;;;;;;1.38;1.10;;;;;;;38.95;18.77;98837.81;5117963;28;20027;-67
2022/08/12 09:51:18;;;;;;;1.30;0.85;;;;;;;39.03;18.22;98832.22;5105484;28;20030;-68
2022/08/12 09:53:44;;;;;;;5.32;1.10;;;;;;;39.06;18.29;98834.25;5109116;28;20072;-68
2022/08/12 09:56:11;;;;;;;1.70;0.93;;;;;;;39.16;18.36;98830.66;5107408;28;20110;-68
2022/08/12 09:58:36;;;;;;;3.28;1.00;;;;;;;37.90;18.85;98814.56;5105592;28;20477;-68
2022/08/12 10:01:05;;;;;;;3.40;1.05;;;;;;;38.79;18.23;98831.59;5106146;28;20158;-68
2022/08/12 10:03:35;;;;;;;1.85;0.82;;;;;;;38.17;18.87;98825.75;5108675;28;20012;-67
2022/08/12 10:06:04;;;;;;;3.90;1.40;;;;;;;35.54;20.35;98815.06;5100132;28;20480;-67
2022/08/12 10:08:29;;;;;;;;;;;;;;;37.36;19.17;98821.50;5104604;28;20180;-67
2022/08/12 10:13:40;;;;;;;2.08;0.90;;;;;;;34.96;21.24;98806.53;5100491;27;20038;-69
2022/08/12 10:16:16;;;;;;;1.50;1.13;;;;;;;36.05;20.09;98811.25;5104116;28;20027;-68
2022/08/12 10:18:43;;;;;;;2.15;1.10;;;;;;;36.84;19.72;98790.16;5104947;28;20345;-68
2022/08/12 10:21:16;;;;;;;1.67;1.13;;;;;;;36.95;19.90;98801.56;5100932;28;20024;-68
2022/08/12 10:23:43;;;;;;;1.88;1.10;;;;;;;38.40;18.63;98791.66;5103088;28;20028;-68
2022/08/12 10:31:39;;;;;;;1.83;0.90;;;;;;;39.51;18.09;98776.31;5099102;28;20051;-69
2022/08/12 10:34:08;;;;;;;1.70;1.10;;;;;;;40.19;17.66;98787.78;5097776;27;20035;-69
2022/08/12 10:36:39;;;;;;;1.25;0.80;;;;;;;39.47;17.91;98777.50;5105312;28;20020;-69
2022/08/12 10:39:07;;;;;;;1.92;1.05;;;;;;;39.57;17.88;98771.06;5100955;28;20061;-69
2022/08/12 10:44:17;;;;;;;1.13;0.90;;;;;;;39.24;17.67;98781.38;5100943;28;20491;-69
2022/08/12 10:46:44;;;;;;;1.45;0.82;;;;;;;39.96;16.75;98764.72;5103895;28;20019;-69
2022/08/12 10:49:11;;;;;;;3.53;1.03;;;;;;;39.31;17.59;98753.13;5105643;28;20038;-76
2022/08/12 10:51:37;;;;;;;4.75;1.00;;;;;;;40.24;17.05;98753.41;5102411;27;20109;-76
2022/08/12 10:54:02;;;;;;;1.17;1.02;;;;;;;40.18;16.82;98760.69;5107293;28;20106;-76
2022/08/12 10:56:30;;;;;;;1.42;0.80;;;;;;;40.57;16.49;98759.91;5103768;28;20119;-78
2022/08/12 10:58:56;;;;;;;1.42;0.95;;;;;;;40.39;16.89;98757.06;5086125;28;20438;-75
2022/08/12 11:01:22;;;;;;;1.85;0.93;;;;;;;40.55;16.58;98748.16;5097059;28;20027;-76
2022/08/12 11:03:48;;;;;;;2.13;0.65;;;;;;;41.42;16.02;98754.47;5106767;28;20408;-77
2022/08/12 11:06:14;;;;;;;3.75;1.00;;;;;;;40.14;16.10;98747.72;5108265;28;20043;-74
2022/08/12 11:08:40;;;;;;;0.70;0.70;;;;;;;39.37;16.41;98757.22;5107495;28;20023;-73
2022/08/12 11:11:07;;;;;;;2.47;0.93;;;;;;;39.16;16.61;98740.13;5083104;28;20472;-73
2022/08/12 11:13:36;;;;;;;1.15;0.80;;;;;;;39.98;16.12;98745.28;5100970;28;20036;-75
2022/08/12 11:16:02;;;;;;;4.00;0.73;;;;;;;39.27;17.07;98729.66;5103622;28;20068;-77
2022/08/12 11:18:28;;;;;;;1.00;0.80;;;;;;;38.83;17.33;98732.63;5096358;28;20035;-75
2022/08/12 11:20:53;;;;;;;2.80;0.77;;;;;;;39.99;16.83;98733.53;5080153;28;20887;-74
2022/08/12 11:23:20;;;;;;;1.35;0.70;;;;;;;39.51;16.93;98730.16;5102631;28;20024;-76
2022/08/12 11:25:47;;;;;;;2.33;0.80;;;;;;;39.60;16.73;98728.59;5108193;28;20043;-72
2022/08/12 11:28:13;;;;;;;2.55;1.00;;;;;;;36.58;18.60;98717.66;5103567;28;20035;-74
2022/08/12 11:30:39;;;;;;;1.55;0.90;;;;;;;37.27;18.72;98723.84;5102784;28;20027;-73
2022/08/12 11:33:04;;;;;;;0.70;0.70;;;;;;;38.96;17.70;98720.63;5102616;28;20031;-71
2022/08/12 11:35:30;;;;;;;2.38;1.00;;;;;;;39.09;16.89;98706.91;5104163;28;20431;-74
2022/08/12 11:37:55;;;;;;;1.35;0.80;;;;;;;40.08;16.31;98711.28;5102804;28;20070;-71
2022/08/12 11:40:21;;;;;;;1.15;0.73;;;;;;;39.96;16.67;98725.06;5102109;28;20054;-71
2022/08/12 11:42:46;;;;;;;1.05;0.90;;;;;;;39.10;16.96;98711.38;5105478;28;20031;-70
2022/08/12 11:45:12;;;;;;;1.70;0.77;;;;;;;39.05;17.09;98725.09;5097808;28;20430;-71
2022/08/12 11:47:37;;;;;;;1.48;1.00;;;;;;;39.05;17.02;98705.31;5103638;28;20288;-74
2022/08/12 11:50:04;;;;;;;1.42;0.77;;;;;;;39.71;16.55;98703.13;5098560;28;20032;-71
2022/08/12 11:52:29;;;;;;;3.97;0.70;;;;;;;41.81;15.77;98705.97;5098105;28;20062;-71
2022/08/12 11:54:54;;;;;;;2.08;1.05;;;;;;;40.25;16.19;98711.72;5100079;28;20031;-71
2022/08/12 11:57:20;;;;;;;3.55;1.10;;;;;;;38.69;17.29;98691.75;5097571;28;20034;-71
2022/08/12 11:59:45;;;;;;;1.63;0.90;;;;;;;36.18;19.29;98713.34;5102770;28;20079;-71
2022/08/12 12:02:10;;;;;;;0.90;0.80;;;;;;;34.45;20.26;98691.28;5086785;28;20039;-71
2022/08/12 12:04:35;;;;;;;1.53;0.90;;;;;;;36.11;19.78;98711.25;5081625;28;20023;-71
2022/08/12 12:07:01;;;;;;;3.70;0.90;;;;;;;35.60;20.11;98696.63;5072557;28;20282;-71
2022/08/12 12:09:26;;;;;;;1.65;1.10;;;;;;;34.85;20.56;98707.91;5094912;28;20585;-71
2022/08/12 12:11:51;;;;;;;1.20;0.85;;;;;;;33.57;21.35;98705.50;5114939;28;20034;-70
2022/08/12 12:14:17;;;;;;;3.13;0.90;;;;;;;32.82;22.18;98698.47;5106995;28;20070;-71
2022/08/12 12:16:42;;;;;;;2.30;0.80;;;;;;;32.24;22.48;98686.63;5104353;28;20019;-71
2022/08/12 12:19:08;;;;;;;2.58;0.82;;;;;;;32.82;22.70;98692.88;5104137;28;20035;-71
2022/08/12 12:21:33;;;;;;;4.28;0.90;;;;;;;34.19;21.32;98695.50;5105567;28;20031;-71
2022/08/12 12:23:58;;;;;;;2.78;0.90;;;;;;;33.84;21.02;98686.97;5106537;27;20032;-70
2022/08/12 12:26:24;;;;;;;1.35;0.90;;;;;;;32.79;22.42;98699.19;5098657;28;20026;-71
2022/08/12 12:28:49;;;;;;;2.08;0.98;;;;;;;32.53;22.57;98693.97;5106964;28;20042;-70
2022/08/12 12:31:15;;;;;;;2.45;1.02;;;;;;;32.09;22.93;98705.75;5110564;28;20108;-71
2022/08/12 12:33:40;;;;;;;1.65;0.85;;;;;;;31.77;23.58;98699.03;5089749;28;20423;-71
2022/08/12 12:36:06;;;;;;;1.20;0.80;;;;;;;32.58;22.99;98690.13;5103078;27;20140;-71
2022/08/12 12:38:32;;;;;;;2.35;0.90;;;;;;;32.54;22.67;98678.78;5106298;28;20024;-70
2022/08/12 12:40:57;;;;;;;1.23;1.00;;;;;;;32.60;22.14;98685.00;5106218;28;20020;-71
2022/08/12 12:43:23;;;;;;;1.48;0.90;;;;;;;32.96;21.51;98679.28;5102034;28;20072;-71
2022/08/12 12:45:49;;;;;;;1.92;0.80;;;;;;;32.26;22.45;98673.91;5103453;27;20058;-71
2022/08/12 12:48:17;;;;;;;1.60;0.85;;;;;;;32.00;22.98;98676.25;5087351;28;20400;-71
2022/08/12 12:50:43;;;;;;;3.53;0.90;;;;;;;32.23;22.67;98676.59;5103001;28;20463;-71
2022/08/12 12:53:09;;;;;;;3.42;1.08;;;;;;;33.00;22.81;98676.56;5103917;27;20019;-71
2022/08/12 12:55:36;;;;;;;3.90;0.90;;;;;;;35.15;20.95;98678.44;5100154;28;20031;-71
2022/08/12 12:58:08;;;;;;;1.38;1.00;;;;;;;36.73;19.14;98671.53;5107198;28;20023;-70
2022/08/12 13:00:34;;;;;;;1.58;0.80;;;;;;;37.09;18.73;98666.41;5100397;27;20024;-70
2022/08/12 13:02:59;;;;;;;2.13;0.80;;;;;;;37.43;18.65;98669.22;5103792;27;20068;-70
2022/08/12 13:05:28;;;;;;;2.50;0.90;;;;;;;38.75;17.80;98666.72;5102389;28;20034;-71
2022/08/12 13:07:57;;;;;;;0.57;0.52;;;;;;;39.81;17.01;98674.03;5099892;27;20051;-71
2022/08/12 13:10:24;;;;;;;1.60;0.77;;;;;;;39.58;16.99;98676.38;5100521;27;20043;-71
2022/08/12 13:12:50;;;;;;;1.63;0.90;;;;;;;40.18;16.48;98669.97;5105314;28;20047;-71
2022/08/12 13:15:16;;;;;;;3.28;0.95;;;;;;;38.78;17.37;98674.44;5101993;28;20112;-71
2022/08/12 13:17:55;;;;;;;1.45;0.80;;;;;;;38.31;17.89;98662.81;5099917;28;20118;-71
2022/08/12 13:20:21;;;;;;;4.18;0.90;;;;;;;37.96;18.04;98654.81;5099255;28;20042;-71
2022/08/12 13:22:48;;;;;;;1.17;0.85;;;;;;;38.32;17.51;98658.75;5101782;28;20038;-71
2022/08/12 13:25:15;;;;;;;0.77;0.70;;;;;;;37.42;18.18;98654.28;5105261;28;20110;-70
2022/08/12 13:27:46;;;;;;;2.20;0.98;;;;;;;37.42;18.04;98657.13;5104387;28;20024;-71
2022/08/12 13:30:15;;;;;;;3.75;1.00;;;;;;;37.08;18.70;98659.16;5101917;27;20040;-70